sensor_id;sensor_type;location;lat;lon;timestamp;pressure;altitude;pressure_sealevel;temperature;humidity
20622;BME280;10470;42.670;23.354;2023-03-13T00:00:18;95058.44;;;2.76;100.00
20622;BME280;10470;42.670;23.354;2023-03-13T00:02:44;95061.13;;;2.72;100.00
20622;BME280;10470;42.670;23.354;2023-03-13T00:05:13;95060.34;;;2.79;100.00
20622;BME280;10470;42.670;23.354;2023-03-13T00:07:38;95065.34;;;2.70;100.00
20622;BME280;10470;42.670;23.354;2023-03-13T00:10:05;95063.78;;;2.79;100.00
20622;BME280;10470;42.670;23.354;2023-03-13T00:12:30;95068.78;;;2.77;100.00
20622;BME280;10470;42.670;23.354;2023-03-13T00:14:56;95067.28;;;2.73;100.00
20622;BME280;10470;42.670;23.354;2023-03-13T00:17:21;95070.34;;;2.78;100.00
20622;BME280;10470;42.670;23.354;2023-03-13T00:19:47;95066.94;;;2.60;100.00
20622;BME280;10470;42.670;23.354;2023-03-13T00:22:12;95073.78;;;2.79;100.00
20622;BME280;10470;42.670;23.354;2023-03-13T00:24:38;95069.59;;;2.71;100.00
20622;BME280;10470;42.670;23.354;2023-03-13T00:27:03;95078.47;;;2.60;100.00
20622;BME280;10470;42.670;23.354;2023-03-13T00:29:31;95078.47;;;2.46;100.00
20622;BME280;10470;42.670;23.354;2023-03-13T00:31:57;95080.81;;;2.44;100.00
20622;BME280;10470;42.670;23.354;2023-03-13T00:34:23;95085.78;;;2.42;100.00
20622;BME280;10470;42.670;23.354;2023-03-13T00:36:50;95087.72;;;2.31;100.00
20622;BME280;10470;42.670;23.354;2023-03-13T00:39:16;95081.19;;;2.25;100.00
20622;BME280;10470;42.670;23.354;2023-03-13T00:41:41;95082.38;;;2.24;100.00
20622;BME280;10470;42.670;23.354;2023-03-13T00:44:08;95070.84;;;2.12;100.00
20622;BME280;10470;42.670;23.354;2023-03-13T00:46:33;95075.06;;;2.13;100.00
20622;BME280;10470;42.670;23.354;2023-03-13T00:48:59;95079.69;;;2.06;100.00
20622;BME280;10470;42.670;23.354;2023-03-13T00:51:25;95078.16;;;2.01;100.00
20622;BME280;10470;42.670;23.354;2023-03-13T00:53:51;95068.94;;;1.95;100.00
20622;BME280;10470;42.670;23.354;2023-03-13T00:56:18;95070.47;;;2.10;100.00
20622;BME280;10470;42.670;23.354;2023-03-13T00:58:45;95077.38;;;2.18;100.00
20622;BME280;10470;42.670;23.354;2023-03-13T01:01:23;95076.63;;;2.18;100.00
20622;BME280;10470;42.670;23.354;2023-03-13T01:03:55;95074.69;;;2.04;100.00
20622;BME280;10470;42.670;23.354;2023-03-13T01:06:23;95076.59;;;2.07;100.00
20622;BME280;10470;42.670;23.354;2023-03-13T01:08:49;95076.63;;;2.18;100.00
20622;BME280;10470;42.670;23.354;2023-03-13T01:11:17;95081.19;;;2.25;100.00
20622;BME280;10470;42.670;23.354;2023-03-13T01:13:44;95060.47;;;1.96;100.00
20622;BME280;10470;42.670;23.354;2023-03-13T01:16:13;95078.50;;;2.25;100.00
20622;BME280;10470;42.670;23.354;2023-03-13T01:18:41;95066.59;;;2.26;100.00
20622;BME280;10470;42.670;23.354;2023-03-13T01:21:07;95070.47;;;2.07;100.00
20622;BME280;10470;42.670;23.354;2023-03-13T01:23:33;95077.75;;;2.28;100.00
20622;BME280;10470;42.670;23.354;2023-03-13T01:25:59;95073.91;;;2.22;100.00
20622;BME280;10470;42.670;23.354;2023-03-13T01:28:25;95078.09;;;2.33;100.00
20622;BME280;10470;42.670;23.354;2023-03-13T01:30:51;95075.47;;;2.15;100.00
20622;BME280;10470;42.670;23.354;2023-03-13T01:33:17;95085.03;;;2.02;100.00
20622;BME280;10470;42.670;23.354;2023-03-13T01:35:43;95084.66;;;2.25;100.00
20622;BME280;10470;42.670;23.354;2023-03-13T01:38:08;95082.75;;;2.18;100.00
20622;BME280;10470;42.670;23.354;2023-03-13T01:40:44;95088.09;;;2.26;100.00
20622;BME280;10470;42.670;23.354;2023-03-13T01:43:21;95097.34;;;2.17;100.00
20622;BME280;10470;42.670;23.354;2023-03-13T01:51:29;95096.94;;;2.23;100.00
20622;BME280;10470;42.670;23.354;2023-03-13T01:59:01;95097.31;;;2.28;100.00
20622;BME280;10470;42.670;23.354;2023-03-13T02:01:27;95094.28;;;2.26;100.00
20622;BME280;10470;42.670;23.354;2023-03-13T02:03:55;95092.34;;;2.19;100.00
20622;BME280;10470;42.670;23.354;2023-03-13T02:06:23;95089.66;;;2.12;100.00
20622;BME280;10470;42.670;23.354;2023-03-13T02:08:53;95097.72;;;2.19;100.00
20622;BME280;10470;42.670;23.354;2023-03-13T02:11:26;95089.66;;;2.23;100.00
20622;BME280;10470;42.670;23.354;2023-03-13T02:13:53;95091.59;;;2.15;100.00
20622;BME280;10470;42.670;23.354;2023-03-13T02:16:20;95096.59;;;2.03;100.00
20622;BME280;10470;42.670;23.354;2023-03-13T02:18:47;95109.22;;;2.02;100.00
20622;BME280;10470;42.670;23.354;2023-03-13T02:21:29;95112.69;;;1.92;100.00
20622;BME280;10470;42.670;23.354;2023-03-13T02:25:09;95110.75;;;1.78;100.00
20622;BME280;10470;42.670;23.354;2023-03-13T02:27:15;95111.16;;;1.77;100.00
20622;BME280;10470;42.670;23.354;2023-03-13T02:29:40;95123.81;;;1.69;100.00
20622;BME280;10470;42.670;23.354;2023-03-13T02:32:07;95119.19;;;1.69;100.00
20622;BME280;10470;42.670;23.354;2023-03-13T02:34:34;95125.69;;;1.58;100.00
20622;BME280;10470;42.670;23.354;2023-03-13T02:37:03;95120.69;;;1.45;100.00
20622;BME280;10470;42.670;23.354;2023-03-13T02:39:31;95131.44;;;1.56;100.00
20622;BME280;10470;42.670;23.354;2023-03-13T02:41:58;95140.25;;;1.46;100.00
20622;BME280;10470;42.670;23.354;2023-03-13T02:44:26;95142.56;;;1.58;100.00
20622;BME280;10470;42.670;23.354;2023-03-13T02:46:51;95153.66;;;1.53;100.00
20622;BME280;10470;42.670;23.354;2023-03-13T02:49:23;95146.00;;;1.48;100.00
20622;BME280;10470;42.670;23.354;2023-03-13T02:51:50;95163.22;;;1.40;100.00
20622;BME280;10470;42.670;23.354;2023-03-13T02:54:21;95160.53;;;1.40;100.00
20622;BME280;10470;42.670;23.354;2023-03-13T02:56:51;95161.34;;;1.55;100.00
20622;BME280;10470;42.670;23.354;2023-03-13T02:59:18;95155.59;;;1.52;100.00
20622;BME280;10470;42.670;23.354;2023-03-13T03:01:43;95167.84;;;1.50;100.00
20622;BME280;10470;42.670;23.354;2023-03-13T03:04:10;95161.69;;;1.42;100.00
20622;BME280;10470;42.670;23.354;2023-03-13T03:06:35;95158.59;;;1.33;100.00
20622;BME280;10470;42.670;23.354;2023-03-13T03:09:01;95157.03;;;1.32;100.00
20622;BME280;10470;42.670;23.354;2023-03-13T03:11:27;95153.25;;;1.44;100.00
20622;BME280;10470;42.670;23.354;2023-03-13T03:13:53;95153.63;;;1.39;100.00
20622;BME280;10470;42.670;23.354;2023-03-13T03:16:18;95161.97;;;1.12;100.00
20622;BME280;10470;42.670;23.354;2023-03-13T03:18:45;95161.53;;;1.03;100.00
20622;BME280;10470;42.670;23.354;2023-03-13T03:21:11;95172.00;;;1.29;100.00
20622;BME280;10470;42.670;23.354;2023-03-13T03:23:37;95174.63;;;1.19;100.00
20622;BME280;10470;42.670;23.354;2023-03-13T03:26:03;95181.56;;;1.23;100.00
20622;BME280;10470;42.670;23.354;2023-03-13T03:28:29;95197.16;;;0.96;100.00
20622;BME280;10470;42.670;23.354;2023-03-13T03:30:54;95197.56;;;1.02;100.00
20622;BME280;10470;42.670;23.354;2023-03-13T03:33:21;95202.97;;;1.09;100.00
20622;BME280;10470;42.670;23.354;2023-03-13T03:35:47;95201.41;;;1.08;100.00
20622;BME280;10470;42.670;23.354;2023-03-13T03:38:12;95197.22;;;1.11;100.00
20622;BME280;10470;42.670;23.354;2023-03-13T03:40:37;95201.06;;;1.09;100.00
20622;BME280;10470;42.670;23.354;2023-03-13T03:43:03;95197.84;;;0.86;100.00
20622;BME280;10470;42.670;23.354;2023-03-13T03:45:28;95204.41;;;0.92;100.00
20622;BME280;10470;42.670;23.354;2023-03-13T03:47:54;95208.66;;;0.97;100.00
20622;BME280;10470;42.670;23.354;2023-03-13T03:50:19;95235.53;;;1.04;100.00
20622;BME280;10470;42.670;23.354;2023-03-13T03:52:45;95232.72;;;0.86;100.00
20622;BME280;10470;42.670;23.354;2023-03-13T03:55:10;95227.38;;;0.93;100.00
20622;BME280;10470;42.670;23.354;2023-03-13T03:57:36;95229.19;;;0.75;100.00
20622;BME280;10470;42.670;23.354;2023-03-13T04:00:02;95223.41;;;0.69;100.00
20622;BME280;10470;42.670;23.354;2023-03-13T04:02:29;95236.09;;;0.79;100.00
20622;BME280;10470;42.670;23.354;2023-03-13T04:04:54;95235.72;;;0.77;100.00
20622;BME280;10470;42.670;23.354;2023-03-13T04:07:20;95238.16;;;0.97;100.00
20622;BME280;10470;42.670;23.354;2023-03-13T04:09:45;95227.78;;;0.95;100.00
20622;BME280;10470;42.670;23.354;2023-03-13T04:12:11;95242.31;;;0.91;100.00
20622;BME280;10470;42.670;23.354;2023-03-13T04:14:36;95246.91;;;0.90;100.00
20622;BME280;10470;42.670;23.354;2023-03-13T04:17:02;95254.25;;;1.00;100.00
20622;BME280;10470;42.670;23.354;2023-03-13T04:19:27;95260.38;;;1.01;100.00
20622;BME280;10470;42.670;23.354;2023-03-13T04:21:52;95257.47;;;0.65;100.00
20622;BME280;10470;42.670;23.354;2023-03-13T04:24:18;95263.69;;;0.76;100.00
20622;BME280;10470;42.670;23.354;2023-03-13T04:26:43;95267.25;;;0.91;100.00
20622;BME280;10470;42.670;23.354;2023-03-13T04:29:09;95268.81;;;0.99;100.00
20622;BME280;10470;42.670;23.354;2023-03-13T04:31:34;95262.59;;;0.88;100.00
20622;BME280;10470;42.670;23.354;2023-03-13T04:33:59;95277.63;;;1.00;100.00
20622;BME280;10470;42.670;23.354;2023-03-13T04:36:25;95272.22;;;0.89;100.00
20622;BME280;10470;42.670;23.354;2023-03-13T04:38:51;95286.44;;;0.97;100.00
20622;BME280;10470;42.670;23.354;2023-03-13T04:41:16;95287.13;;;0.86;100.00
20622;BME280;10470;42.670;23.354;2023-03-13T04:43:41;95298.53;;;0.76;100.00
20622;BME280;10470;42.670;23.354;2023-03-13T04:46:07;95291.28;;;0.80;100.00
20622;BME280;10470;42.670;23.354;2023-03-13T04:48:32;95297.03;;;0.79;100.00
20622;BME280;10470;42.670;23.354;2023-03-13T04:50:58;95295.47;;;0.78;100.00
20622;BME280;10470;42.670;23.354;2023-03-13T04:53:23;95301.66;;;0.85;100.00
20622;BME280;10470;42.670;23.354;2023-03-13T04:55:49;95317.81;;;0.93;100.00
20622;BME280;10470;42.670;23.354;2023-03-13T04:58:15;95306.31;;;0.92;100.00
20622;BME280;10470;42.670;23.354;2023-03-13T05:00:40;95302.41;;;0.79;100.00
20622;BME280;10470;42.670;23.354;2023-03-13T05:03:06;95304.31;;;0.78;100.00
20622;BME280;10470;42.670;23.354;2023-03-13T05:05:33;95317.81;;;0.89;100.00
20622;BME280;10470;42.670;23.354;2023-03-13T05:07:59;95313.94;;;0.86;100.00
20622;BME280;10470;42.670;23.354;2023-03-13T05:10:24;95309.19;;;0.69;100.00
20622;BME280;10470;42.670;23.354;2023-03-13T05:12:50;95305.78;;;0.72;100.00
20622;BME280;10470;42.670;23.354;2023-03-13T05:15:15;95317.03;;;0.89;100.00
20622;BME280;10470;42.670;23.354;2023-03-13T05:17:41;95306.19;;;0.74;100.00
20622;BME280;10470;42.670;23.354;2023-03-13T05:20:07;95317.00;;;0.85;100.00
20622;BME280;10470;42.670;23.354;2023-03-13T05:22:35;95332.13;;;1.07;100.00
20622;BME280;10470;42.670;23.354;2023-03-13T05:25:01;95332.59;;;1.20;100.00
20622;BME280;10470;42.670;23.354;2023-03-13T05:27:26;95339.47;;;1.18;100.00
20622;BME280;10470;42.670;23.354;2023-03-13T05:29:52;95342.84;;;1.04;100.00
20622;BME280;10470;42.670;23.354;2023-03-13T05:32:17;95340.22;;;1.15;100.00
20622;BME280;10470;42.670;23.354;2023-03-13T05:34:43;95341.75;;;1.16;100.00
20622;BME280;10470;42.670;23.354;2023-03-13T05:37:08;95345.63;;;1.22;100.00
20622;BME280;10470;42.670;23.354;2023-03-13T05:39:33;95337.97;;;1.20;100.00
20622;BME280;10470;42.670;23.354;2023-03-13T05:41:59;95343.41;;;1.27;100.00
20622;BME280;10470;42.670;23.354;2023-03-13T05:44:24;95353.03;;;1.39;100.00
20622;BME280;10470;42.670;23.354;2023-03-13T05:46:50;95346.63;;;1.51;100.00
20622;BME280;10470;42.670;23.354;2023-03-13T05:49:15;95350.81;;;1.52;100.00
20622;BME280;10470;42.670;23.354;2023-03-13T05:51:41;95348.97;;;1.60;100.00
20622;BME280;10470;42.670;23.354;2023-03-13T05:54:06;95357.84;;;1.71;100.00
20622;BME280;10470;42.670;23.354;2023-03-13T05:56:31;95358.19;;;1.66;100.00
20622;BME280;10470;42.670;23.354;2023-03-13T05:58:57;95367.03;;;1.66;100.00
20622;BME280;10470;42.670;23.354;2023-03-13T06:01:22;95370.16;;;1.75;100.00
20622;BME280;10470;42.670;23.354;2023-03-13T06:03:48;95366.59;;;1.61;100.00
20622;BME280;10470;42.670;23.354;2023-03-13T06:06:13;95370.53;;;1.78;100.00
20622;BME280;10470;42.670;23.354;2023-03-13T06:08:38;95369.06;;;1.87;100.00
20622;BME280;10470;42.670;23.354;2023-03-13T06:11:04;95362.19;;;1.97;100.00
20622;BME280;10470;42.670;23.354;2023-03-13T06:13:29;95365.63;;;1.90;100.00
20622;BME280;10470;42.670;23.354;2023-03-13T06:15:56;95374.53;;;2.05;100.00
20622;BME280;10470;42.670;23.354;2023-03-13T06:18:22;95369.03;;;1.84;100.00
20622;BME280;10470;42.670;23.354;2023-03-13T06:20:49;95365.31;;;2.06;100.00
20622;BME280;10470;42.670;23.354;2023-03-13T06:23:20;95368.06;;;2.28;100.00
20622;BME280;10470;42.670;23.354;2023-03-13T06:25:48;95371.59;;;2.39;100.00
20622;BME280;10470;42.670;23.354;2023-03-13T06:28:14;95372.03;;;2.62;100.00
20622;BME280;10470;42.670;23.354;2023-03-13T06:30:40;95368.16;;;2.53;100.00
20622;BME280;10470;42.670;23.354;2023-03-13T06:33:06;95378.88;;;2.35;100.00
20622;BME280;10470;42.670;23.354;2023-03-13T06:35:31;95365.84;;;2.44;100.00
20622;BME280;10470;42.670;23.354;2023-03-13T06:37:57;95358.97;;;2.72;100.00
20622;BME280;10470;42.670;23.354;2023-03-13T06:40:22;95358.97;;;2.72;100.00
20622;BME280;10470;42.670;23.354;2023-03-13T06:42:48;95357.06;;;2.90;100.00
20622;BME280;10470;42.670;23.354;2023-03-13T06:45:13;95359.78;;;2.94;100.00
20622;BME280;10470;42.670;23.354;2023-03-13T06:47:39;95358.63;;;2.95;100.00
20622;BME280;10470;42.670;23.354;2023-03-13T06:50:04;95353.25;;;2.98;100.00
20622;BME280;10470;42.670;23.354;2023-03-13T06:52:30;95361.34;;;3.09;100.00
20622;BME280;10470;42.670;23.354;2023-03-13T06:54:56;95369.00;;;3.11;100.00
20622;BME280;10470;42.670;23.354;2023-03-13T06:57:21;95365.94;;;3.16;100.00
20622;BME280;10470;42.670;23.354;2023-03-13T06:59:47;95360.56;;;3.12;100.00
20622;BME280;10470;42.670;23.354;2023-03-13T07:02:12;95359.78;;;3.04;100.00
20622;BME280;10470;42.670;23.354;2023-03-13T07:04:38;95356.34;;;3.15;100.00
20622;BME280;10470;42.670;23.354;2023-03-13T07:07:04;95349.78;;;3.26;100.00
20622;BME280;10470;42.670;23.354;2023-03-13T07:09:29;95355.94;;;3.13;100.00
20622;BME280;10470;42.670;23.354;2023-03-13T07:11:55;95356.72;;;3.10;100.00
20622;BME280;10470;42.670;23.354;2023-03-13T07:14:22;95354.41;;;3.33;100.00
20622;BME280;10470;42.670;23.354;2023-03-13T07:16:47;95362.47;;;3.19;100.00
20622;BME280;10470;42.670;23.354;2023-03-13T07:19:13;95360.94;;;3.32;100.00
20622;BME280;10470;42.670;23.354;2023-03-13T07:21:40;95358.63;;;3.48;100.00
20622;BME280;10470;42.670;23.354;2023-03-13T07:24:06;95357.81;;;3.55;100.00
20622;BME280;10470;42.670;23.354;2023-03-13T07:26:31;95360.50;;;3.73;100.00
20622;BME280;10470;42.670;23.354;2023-03-13T07:28:57;95353.97;;;3.74;100.00
20622;BME280;10470;42.670;23.354;2023-03-13T07:31:22;95346.25;;;3.72;100.00
20622;BME280;10470;42.670;23.354;2023-03-13T07:33:48;95360.94;;;3.54;100.00
20622;BME280;10470;42.670;23.354;2023-03-13T07:36:17;95348.94;;;3.72;100.00
20622;BME280;10470;42.670;23.354;2023-03-13T07:38:46;95354.69;;;3.85;100.00
20622;BME280;10470;42.670;23.354;2023-03-13T07:41:12;95356.22;;;3.93;100.00
20622;BME280;10470;42.670;23.354;2023-03-13T07:43:38;95353.84;;;4.06;100.00
20622;BME280;10470;42.670;23.354;2023-03-13T07:46:05;95360.41;;;4.09;100.00
20622;BME280;10470;42.670;23.354;2023-03-13T07:48:36;95361.19;;;4.06;100.00
20622;BME280;10470;42.670;23.354;2023-03-13T07:51:03;95348.03;;;4.19;100.00
20622;BME280;10470;42.670;23.354;2023-03-13T07:53:29;95356.47;;;4.28;100.00
20622;BME280;10470;42.670;23.354;2023-03-13T07:56:06;95358.78;;;4.29;100.00
20622;BME280;10470;42.670;23.354;2023-03-13T07:58:34;95354.50;;;4.39;100.00
20622;BME280;10470;42.670;23.354;2023-03-13T08:01:01;95343.28;;;4.48;100.00
20622;BME280;10470;42.670;23.354;2023-03-13T08:03:31;95343.06;;;4.13;100.00
20622;BME280;10470;42.670;23.354;2023-03-13T08:06:02;95345.44;;;4.78;100.00
20622;BME280;10470;42.670;23.354;2023-03-13T08:08:29;95342.72;;;4.74;100.00
20622;BME280;10470;42.670;23.354;2023-03-13T08:11:02;95341.13;;;4.84;100.00
20622;BME280;10470;42.670;23.354;2023-03-13T08:13:30;95335.00;;;4.80;100.00
20622;BME280;10470;42.670;23.354;2023-03-13T08:16:07;95343.44;;;4.86;100.00
20622;BME280;10470;42.670;23.354;2023-03-13T08:18:34;95338.28;;;5.06;100.00
20622;BME280;10470;42.670;23.354;2023-03-13T08:21:04;95342.41;;;5.24;100.00
20622;BME280;10470;42.670;23.354;2023-03-13T08:23:31;95344.81;;;5.12;100.00
20622;BME280;10470;42.670;23.354;2023-03-13T08:26:01;95349.66;;;4.79;100.00
20622;BME280;10470;42.670;23.354;2023-03-13T08:28:27;95346.56;;;4.77;100.00
20622;BME280;10470;42.670;23.354;2023-03-13T08:30:53;95346.19;;;4.78;100.00
20622;BME280;10470;42.670;23.354;2023-03-13T08:33:18;95342.59;;;4.96;100.00
20622;BME280;10470;42.670;23.354;2023-03-13T08:35:44;95347.19;;;5.02;100.00
20622;BME280;10470;42.670;23.354;2023-03-13T08:38:09;95355.16;;;5.20;100.00
20622;BME280;10470;42.670;23.354;2023-03-13T08:40:35;95357.66;;;5.42;100.00
20622;BME280;10470;42.670;23.354;2023-03-13T08:43:00;95353.28;;;5.14;100.00
20622;BME280;10470;42.670;23.354;2023-03-13T08:45:26;95361.06;;;5.50;100.00
20622;BME280;10470;42.670;23.354;2023-03-13T08:47:52;95351.97;;;5.74;100.00
20622;BME280;10470;42.670;23.354;2023-03-13T08:50:18;95344.97;;;5.39;100.00
20622;BME280;10470;42.670;23.354;2023-03-13T08:52:44;95341.16;;;5.33;100.00
20622;BME280;10470;42.670;23.354;2023-03-13T08:55:09;95342.09;;;5.60;100.00
20622;BME280;10470;42.670;23.354;2023-03-13T08:57:35;95346.75;;;5.56;100.00
20622;BME280;10470;42.670;23.354;2023-03-13T09:00:00;95351.63;;;5.27;100.00
20622;BME280;10470;42.670;23.354;2023-03-13T09:02:26;95336.66;;;5.15;100.00
20622;BME280;10470;42.670;23.354;2023-03-13T09:04:51;95342.03;;;5.22;100.00
20622;BME280;10470;42.670;23.354;2023-03-13T09:07:17;95341.88;;;5.78;100.00
20622;BME280;10470;42.670;23.354;2023-03-13T09:09:42;95348.84;;;5.76;96.86
20622;BME280;10470;42.670;23.354;2023-03-13T09:12:08;95349.06;;;5.96;95.01
20622;BME280;10470;42.670;23.354;2023-03-13T09:14:34;95345.81;;;6.11;93.49
20622;BME280;10470;42.670;23.354;2023-03-13T09:16:59;95348.50;;;6.15;93.18
20622;BME280;10470;42.670;23.354;2023-03-13T09:19:25;95337.03;;;5.62;93.37
20622;BME280;10470;42.670;23.354;2023-03-13T09:21:50;95327.06;;;5.94;92.39
20622;BME280;10470;42.670;23.354;2023-03-13T09:24:16;95332.44;;;6.31;92.92
20622;BME280;10470;42.670;23.354;2023-03-13T09:26:42;95329.28;;;6.64;88.68
20622;BME280;10470;42.670;23.354;2023-03-13T09:29:08;95330.94;;;6.27;85.84
20622;BME280;10470;42.670;23.354;2023-03-13T09:31:33;95343.63;;;6.33;85.93
20622;BME280;10470;42.670;23.354;2023-03-13T09:33:59;95342.81;;;6.37;85.35
20622;BME280;10470;42.670;23.354;2023-03-13T09:36:26;95340.34;;;6.46;84.64
20622;BME280;10470;42.670;23.354;2023-03-13T09:38:54;95343.06;;;6.15;84.74
20622;BME280;10470;42.670;23.354;2023-03-13T09:44:31;95348.69;;;6.59;82.29
20622;BME280;10470;42.670;23.354;2023-03-13T09:47:04;95341.63;;;6.95;80.36
20622;BME280;10470;42.670;23.354;2023-03-13T09:54:51;95331.31;;;7.37;77.07
20622;BME280;10470;42.670;23.354;2023-03-13T09:57:24;95329.63;;;7.43;76.47
20622;BME280;10470;42.670;23.354;2023-03-13T09:59:57;95328.22;;;6.85;76.09
20622;BME280;10470;42.670;23.354;2023-03-13T10:02:30;95321.47;;;7.47;76.47
20622;BME280;10470;42.670;23.354;2023-03-13T10:05:20;95325.16;;;7.57;74.76
20622;BME280;10470;42.670;23.354;2023-03-13T10:07:46;95328.94;;;7.63;73.72
20622;BME280;10470;42.670;23.354;2023-03-13T10:10:17;95327.66;;;7.68;74.11
20622;BME280;10470;42.670;23.354;2023-03-13T10:12:45;95313.66;;;7.93;73.54
20622;BME280;10470;42.670;23.354;2023-03-13T10:17:51;95310.59;;;8.10;71.83
20622;BME280;10470;42.670;23.354;2023-03-13T10:20:23;95304.75;;;8.12;70.64
20622;BME280;10470;42.670;23.354;2023-03-13T10:23:02;95295.69;;;8.19;70.03
20622;BME280;10470;42.670;23.354;2023-03-13T10:25:35;95300.72;;;8.20;69.62
20622;BME280;10470;42.670;23.354;2023-03-13T10:28:03;95287.53;;;8.39;69.63
20622;BME280;10470;42.670;23.354;2023-03-13T10:30:30;95287.59;;;8.55;68.98
20622;BME280;10470;42.670;23.354;2023-03-13T10:33:16;95275.47;;;8.60;68.21
20622;BME280;10470;42.670;23.354;2023-03-13T10:35:43;95282.06;;;9.11;66.94
20622;BME280;10470;42.670;23.354;2023-03-13T10:38:19;95281.22;;;8.98;66.09
20622;BME280;10470;42.670;23.354;2023-03-13T10:41:08;95284.31;;;9.13;66.62
20622;BME280;10470;42.670;23.354;2023-03-13T10:43:54;95280.97;;;9.54;64.72
20622;BME280;10470;42.670;23.354;2023-03-13T10:46:24;95274.91;;;9.17;64.55
20622;BME280;10470;42.670;23.354;2023-03-13T10:48:53;95267.41;;;9.38;65.02
20622;BME280;10470;42.670;23.354;2023-03-13T10:51:23;95257.16;;;9.29;64.53
20622;BME280;10470;42.670;23.354;2023-03-13T10:53:49;95260.44;;;9.95;64.14
20622;BME280;10470;42.670;23.354;2023-03-13T10:56:23;95250.69;;;10.11;62.93
20622;BME280;10470;42.670;23.354;2023-03-13T10:58:51;95254.38;;;10.46;62.19
20622;BME280;10470;42.670;23.354;2023-03-13T11:01:19;95255.69;;;10.54;60.85
20622;BME280;10470;42.670;23.354;2023-03-13T11:03:47;95253.00;;;10.12;59.73
20622;BME280;10470;42.670;23.354;2023-03-13T11:11:49;95235.13;;;11.83;57.16
20622;BME280;10470;42.670;23.354;2023-03-13T11:14:19;95235.22;;;11.23;57.30
20622;BME280;10470;42.670;23.354;2023-03-13T11:16:51;95237.22;;;11.79;57.94
20622;BME280;10470;42.670;23.354;2023-03-13T11:19:33;95234.66;;;11.28;56.17
20622;BME280;10470;42.670;23.354;2023-03-13T11:37:48;95217.88;;;12.80;53.34
20622;BME280;10470;42.670;23.354;2023-03-13T11:43:14;95209.28;;;13.09;51.69
20622;BME280;10470;42.670;23.354;2023-03-13T11:46:01;95201.28;;;13.33;51.34
20622;BME280;10470;42.670;23.354;2023-03-13T11:51:24;95183.13;;;12.99;50.55
20622;BME280;10470;42.670;23.354;2023-03-13T11:56:27;95178.63;;;13.23;50.13
20622;BME280;10470;42.670;23.354;2023-03-13T11:59:18;95181.69;;;13.53;50.66
20622;BME280;10470;42.670;23.354;2023-03-13T12:01:53;95177.69;;;13.91;49.60
20622;BME280;10470;42.670;23.354;2023-03-13T12:04:48;95167.47;;;12.99;50.87
20622;BME280;10470;42.670;23.354;2023-03-13T12:07:23;95162.41;;;14.17;49.66
20622;BME280;10470;42.670;23.354;2023-03-13T12:10:08;95157.88;;;14.48;49.15
20622;BME280;10470;42.670;23.354;2023-03-13T12:12:44;95158.28;;;15.37;47.95
20622;BME280;10470;42.670;23.354;2023-03-13T12:15:31;95156.00;;;14.63;48.53
20622;BME280;10470;42.670;23.354;2023-03-13T12:18:12;95150.31;;;15.00;48.31
20622;BME280;10470;42.670;23.354;2023-03-13T12:21:00;95131.78;;;14.85;47.92
20622;BME280;10470;42.670;23.354;2023-03-13T12:23:42;95149.50;;;14.42;47.90
20622;BME280;10470;42.670;23.354;2023-03-13T12:26:18;95146.28;;;15.49;47.21
20622;BME280;10470;42.670;23.354;2023-03-13T12:33:47;95137.81;;;16.21;45.57
20622;BME280;10470;42.670;23.354;2023-03-13T12:45:18;95140.97;;;17.66;41.91
20622;BME280;10470;42.670;23.354;2023-03-13T12:53:56;95142.72;;;18.80;40.83
20622;BME280;10470;42.670;23.354;2023-03-13T13:01:59;95151.59;;;18.58;40.09
20622;BME280;10470;42.670;23.354;2023-03-13T13:04:28;95155.28;;;20.17;39.13
20622;BME280;10470;42.670;23.354;2023-03-13T13:07:01;95152.25;;;20.77;38.41
20622;BME280;10470;42.670;23.354;2023-03-13T13:09:37;95149.25;;;20.47;38.44
20622;BME280;10470;42.670;23.354;2023-03-13T13:12:22;95152.25;;;20.83;38.03
20622;BME280;10470;42.670;23.354;2023-03-13T13:20:35;95153.28;;;20.68;36.70
20622;BME280;10470;42.670;23.354;2023-03-13T13:23:29;95150.25;;;20.78;36.80
20622;BME280;10470;42.670;23.354;2023-03-13T13:28:59;95139.69;;;20.31;36.79
20622;BME280;10470;42.670;23.354;2023-03-13T13:31:45;95139.91;;;19.99;36.89
20622;BME280;10470;42.670;23.354;2023-03-13T13:36:53;95132.97;;;19.44;37.44
20622;BME280;10470;42.670;23.354;2023-03-13T13:39:42;95131.09;;;19.84;36.65
20622;BME280;10470;42.670;23.354;2023-03-13T13:45:03;95128.34;;;20.23;36.15
20622;BME280;10470;42.670;23.354;2023-03-13T13:47:30;95132.06;;;20.99;35.82
20622;BME280;10470;42.670;23.354;2023-03-13T13:49:58;95130.78;;;19.65;36.90
20622;BME280;10470;42.670;23.354;2023-03-13T13:54:59;95122.81;;;20.18;35.94
20622;BME280;10470;42.670;23.354;2023-03-13T13:57:26;95127.56;;;20.96;35.48
20622;BME280;10470;42.670;23.354;2023-03-13T14:00:25;95126.06;;;22.00;34.56
20622;BME280;10470;42.670;23.354;2023-03-13T14:02:53;95115.03;;;20.56;35.73
20622;BME280;10470;42.670;23.354;2023-03-13T14:08:03;95123.03;;;19.80;37.01
20622;BME280;10470;42.670;23.354;2023-03-13T14:10:41;95118.16;;;18.87;37.55
20622;BME280;10470;42.670;23.354;2023-03-13T14:13:17;95108.41;;;18.17;38.37
20622;BME280;10470;42.670;23.354;2023-03-13T14:15:51;95101.81;;;19.43;37.86
20622;BME280;10470;42.670;23.354;2023-03-13T14:18:23;95107.84;;;19.53;37.40
20622;BME280;10470;42.670;23.354;2023-03-13T14:20:56;95104.19;;;18.65;38.08
20622;BME280;10470;42.670;23.354;2023-03-13T14:25:53;95104.38;;;18.93;38.29
20622;BME280;10470;42.670;23.354;2023-03-13T14:28:23;95107.28;;;19.21;37.78
20622;BME280;10470;42.670;23.354;2023-03-13T14:30:51;95110.91;;;18.90;38.20
20622;BME280;10470;42.670;23.354;2023-03-13T14:33:17;95101.34;;;18.91;38.57
20622;BME280;10470;42.670;23.354;2023-03-13T14:35:44;95103.25;;;17.99;39.06